sensor_id;sensor_type;location;lat;lon;timestamp;P1;durP1;ratioP1;P2;durP2;ratioP2
6475;SDS011;3271;51.910;5.840;2023-06-14T00:00:12;4.00;;;2.72;;
6475;SDS011;3271;51.910;5.840;2023-06-14T00:02:39;3.22;;;2.67;;
6475;SDS011;3271;51.910;5.840;2023-06-14T00:05:06;2.92;;;2.25;;
6475;SDS011;3271;51.910;5.840;2023-06-14T00:07:36;3.80;;;2.72;;
6475;SDS011;3271;51.910;5.840;2023-06-14T00:10:03;3.92;;;2.88;;
6475;SDS011;3271;51.910;5.840;2023-06-14T00:12:29;3.80;;;2.65;;
6475;SDS011;3271;51.910;5.840;2023-06-14T00:14:56;3.78;;;2.72;;
6475;SDS011;3271;51.910;5.840;2023-06-14T00:17:22;6.15;;;2.85;;
6475;SDS011;3271;51.910;5.840;2023-06-14T00:19:48;3.78;;;2.90;;
6475;SDS011;3271;51.910;5.840;2023-06-14T00:22:14;4.30;;;2.65;;
6475;SDS011;3271;51.910;5.840;2023-06-14T00:24:40;3.33;;;2.20;;
6475;SDS011;3271;51.910;5.840;2023-06-14T00:27:06;3.55;;;2.70;;
6475;SDS011;3271;51.910;5.840;2023-06-14T00:29:32;6.05;;;2.55;;
6475;SDS011;3271;51.910;5.840;2023-06-14T00:31:58;5.30;;;2.85;;
6475;SDS011;3271;51.910;5.840;2023-06-14T00:34:24;3.90;;;2.80;;
6475;SDS011;3271;51.910;5.840;2023-06-14T00:36:50;5.40;;;2.45;;
6475;SDS011;3271;51.910;5.840;2023-06-14T00:39:16;4.03;;;2.38;;
6475;SDS011;3271;51.910;5.840;2023-06-14T00:41:42;3.95;;;2.30;;
6475;SDS011;3271;51.910;5.840;2023-06-14T00:44:08;4.05;;;2.67;;
6475;SDS011;3271;51.910;5.840;2023-06-14T00:46:34;8.10;;;2.53;;
6475;SDS011;3271;51.910;5.840;2023-06-14T00:49:00;6.43;;;2.97;;
6475;SDS011;3271;51.910;5.840;2023-06-14T00:51:26;4.63;;;2.72;;
6475;SDS011;3271;51.910;5.840;2023-06-14T00:53:52;2.97;;;2.22;;
6475;SDS011;3271;51.910;5.840;2023-06-14T00:56:18;3.55;;;2.55;;
6475;SDS011;3271;51.910;5.840;2023-06-14T00:58:45;4.22;;;2.92;;
6475;SDS011;3271;51.910;5.840;2023-06-14T01:01:11;3.38;;;2.85;;
6475;SDS011;3271;51.910;5.840;2023-06-14T01:03:37;5.88;;;2.50;;
6475;SDS011;3271;51.910;5.840;2023-06-14T01:06:07;3.60;;;2.50;;
6475;SDS011;3271;51.910;5.840;2023-06-14T01:11:04;4.13;;;2.90;;
6475;SDS011;3271;51.910;5.840;2023-06-14T01:15:57;6.22;;;2.58;;
6475;SDS011;3271;51.910;5.840;2023-06-14T01:18:23;5.50;;;2.47;;
6475;SDS011;3271;51.910;5.840;2023-06-14T01:20:51;4.03;;;2.20;;
6475;SDS011;3271;51.910;5.840;2023-06-14T01:23:20;3.13;;;2.80;;
6475;SDS011;3271;51.910;5.840;2023-06-14T01:25:46;2.92;;;2.72;;
6475;SDS011;3271;51.910;5.840;2023-06-14T01:28:17;2.78;;;2.42;;
6475;SDS011;3271;51.910;5.840;2023-06-14T01:30:44;6.85;;;2.70;;
6475;SDS011;3271;51.910;5.840;2023-06-14T01:33:13;4.07;;;2.58;;
6475;SDS011;3271;51.910;5.840;2023-06-14T01:35:40;5.25;;;2.58;;
6475;SDS011;3271;51.910;5.840;2023-06-14T01:38:06;6.10;;;2.63;;
6475;SDS011;3271;51.910;5.840;2023-06-14T01:40:33;3.63;;;2.60;;
6475;SDS011;3271;51.910;5.840;2023-06-14T01:43:00;6.10;;;3.38;;
6475;SDS011;3271;51.910;5.840;2023-06-14T01:45:27;7.93;;;2.50;;
6475;SDS011;3271;51.910;5.840;2023-06-14T01:47:53;3.90;;;2.63;;
6475;SDS011;3271;51.910;5.840;2023-06-14T01:50:20;3.67;;;2.38;;
6475;SDS011;3271;51.910;5.840;2023-06-14T01:52:46;3.38;;;2.80;;
6475;SDS011;3271;51.910;5.840;2023-06-14T01:55:12;5.22;;;2.50;;
6475;SDS011;3271;51.910;5.840;2023-06-14T01:57:38;3.88;;;2.80;;
6475;SDS011;3271;51.910;5.840;2023-06-14T02:00:07;3.00;;;2.65;;
6475;SDS011;3271;51.910;5.840;2023-06-14T02:02:35;5.10;;;2.53;;
6475;SDS011;3271;51.910;5.840;2023-06-14T02:05:01;5.68;;;2.22;;
6475;SDS011;3271;51.910;5.840;2023-06-14T02:07:27;4.05;;;2.40;;
6475;SDS011;3271;51.910;5.840;2023-06-14T02:09:53;5.75;;;2.38;;
6475;SDS011;3271;51.910;5.840;2023-06-14T02:12:19;7.20;;;2.50;;
6475;SDS011;3271;51.910;5.840;2023-06-14T02:14:45;4.18;;;2.60;;
6475;SDS011;3271;51.910;5.840;2023-06-14T02:17:11;2.80;;;2.50;;
6475;SDS011;3271;51.910;5.840;2023-06-14T02:19:37;2.58;;;2.30;;
6475;SDS011;3271;51.910;5.840;2023-06-14T02:22:03;5.10;;;2.75;;
6475;SDS011;3271;51.910;5.840;2023-06-14T02:24:29;2.95;;;2.60;;
6475;SDS011;3271;51.910;5.840;2023-06-14T02:26:55;7.35;;;2.80;;
6475;SDS011;3271;51.910;5.840;2023-06-14T02:29:21;5.78;;;2.42;;
6475;SDS011;3271;51.910;5.840;2023-06-14T02:31:47;3.50;;;2.42;;
6475;SDS011;3271;51.910;5.840;2023-06-14T02:34:13;4.50;;;2.83;;
6475;SDS011;3271;51.910;5.840;2023-06-14T02:36:41;6.10;;;2.80;;
6475;SDS011;3271;51.910;5.840;2023-06-14T02:39:11;4.43;;;2.70;;
6475;SDS011;3271;51.910;5.840;2023-06-14T02:41:37;7.47;;;2.47;;
6475;SDS011;3271;51.910;5.840;2023-06-14T02:44:03;5.25;;;2.25;;
6475;SDS011;3271;51.910;5.840;2023-06-14T02:46:29;2.55;;;2.15;;
6475;SDS011;3271;51.910;5.840;2023-06-14T02:48:55;3.15;;;2.20;;
6475;SDS011;3271;51.910;5.840;2023-06-14T02:51:21;3.38;;;2.22;;
6475;SDS011;3271;51.910;5.840;2023-06-14T02:53:47;4.55;;;2.60;;
6475;SDS011;3271;51.910;5.840;2023-06-14T02:56:13;5.03;;;2.20;;
6475;SDS011;3271;51.910;5.840;2023-06-14T02:58:42;5.20;;;2.53;;
6475;SDS011;3271;51.910;5.840;2023-06-14T03:01:08;4.30;;;2.33;;
6475;SDS011;3271;51.910;5.840;2023-06-14T03:03:37;3.33;;;2.42;;
6475;SDS011;3271;51.910;5.840;2023-06-14T03:06:03;4.68;;;2.83;;
6475;SDS011;3271;51.910;5.840;2023-06-14T03:08:30;4.03;;;3.15;;
6475;SDS011;3271;51.910;5.840;2023-06-14T03:10:58;3.50;;;2.75;;
6475;SDS011;3271;51.910;5.840;2023-06-14T03:13:24;5.32;;;2.70;;
6475;SDS011;3271;51.910;5.840;2023-06-14T03:15:51;5.32;;;2.90;;
6475;SDS011;3271;51.910;5.840;2023-06-14T03:18:17;6.63;;;2.60;;
6475;SDS011;3271;51.910;5.840;2023-06-14T03:20:44;4.22;;;2.45;;
6475;SDS011;3271;51.910;5.840;2023-06-14T03:23:10;3.22;;;2.45;;
6475;SDS011;3271;51.910;5.840;2023-06-14T03:25:36;5.32;;;2.85;;
6475;SDS011;3271;51.910;5.840;2023-06-14T03:28:03;3.75;;;2.53;;
6475;SDS011;3271;51.910;5.840;2023-06-14T03:30:30;3.38;;;2.38;;
6475;SDS011;3271;51.910;5.840;2023-06-14T03:32:56;4.43;;;2.65;;
6475;SDS011;3271;51.910;5.840;2023-06-14T03:35:22;5.07;;;2.60;;
6475;SDS011;3271;51.910;5.840;2023-06-14T03:37:49;4.95;;;2.75;;
6475;SDS011;3271;51.910;5.840;2023-06-14T03:40:15;4.82;;;2.42;;
6475;SDS011;3271;51.910;5.840;2023-06-14T03:42:42;8.98;;;2.88;;
6475;SDS011;3271;51.910;5.840;2023-06-14T03:45:08;3.97;;;2.53;;
6475;SDS011;3271;51.910;5.840;2023-06-14T03:47:34;2.78;;;2.38;;
6475;SDS011;3271;51.910;5.840;2023-06-14T03:50:00;4.65;;;2.90;;
6475;SDS011;3271;51.910;5.840;2023-06-14T03:52:27;3.25;;;2.58;;
6475;SDS011;3271;51.910;5.840;2023-06-14T03:54:53;4.82;;;2.42;;
6475;SDS011;3271;51.910;5.840;2023-06-14T03:57:19;4.25;;;2.30;;
6475;SDS011;3271;51.910;5.840;2023-06-14T03:59:46;5.47;;;2.58;;
6475;SDS011;3271;51.910;5.840;2023-06-14T04:02:12;4.65;;;2.72;;
6475;SDS011;3271;51.910;5.840;2023-06-14T04:04:42;5.50;;;2.60;;
6475;SDS011;3271;51.910;5.840;2023-06-14T04:07:13;2.90;;;2.40;;
6475;SDS011;3271;51.910;5.840;2023-06-14T04:09:40;4.05;;;2.28;;
6475;SDS011;3271;51.910;5.840;2023-06-14T04:12:06;3.47;;;2.60;;
6475;SDS011;3271;51.910;5.840;2023-06-14T04:14:33;3.13;;;2.42;;
6475;SDS011;3271;51.910;5.840;2023-06-14T04:16:59;3.65;;;2.40;;
6475;SDS011;3271;51.910;5.840;2023-06-14T04:19:26;2.60;;;2.28;;
6475;SDS011;3271;51.910;5.840;2023-06-14T04:21:52;3.25;;;2.60;;
6475;SDS011;3271;51.910;5.840;2023-06-14T04:24:18;3.20;;;2.35;;
6475;SDS011;3271;51.910;5.840;2023-06-14T04:26:44;3.78;;;2.80;;
6475;SDS011;3271;51.910;5.840;2023-06-14T04:29:12;4.00;;;2.70;;
6475;SDS011;3271;51.910;5.840;2023-06-14T04:31:42;7.45;;;2.67;;
6475;SDS011;3271;51.910;5.840;2023-06-14T04:34:09;6.50;;;2.97;;
6475;SDS011;3271;51.910;5.840;2023-06-14T04:36:41;5.80;;;2.85;;
6475;SDS011;3271;51.910;5.840;2023-06-14T04:39:13;8.13;;;3.33;;
6475;SDS011;3271;51.910;5.840;2023-06-14T04:41:39;3.25;;;2.40;;
6475;SDS011;3271;51.910;5.840;2023-06-14T04:44:05;4.93;;;2.72;;
6475;SDS011;3271;51.910;5.840;2023-06-14T04:46:32;5.85;;;2.70;;
6475;SDS011;3271;51.910;5.840;2023-06-14T04:49:08;3.53;;;2.42;;
6475;SDS011;3271;51.910;5.840;2023-06-14T04:51:35;2.70;;;2.42;;
6475;SDS011;3271;51.910;5.840;2023-06-14T04:54:01;2.70;;;2.35;;
6475;SDS011;3271;51.910;5.840;2023-06-14T04:56:28;4.53;;;3.13;;
6475;SDS011;3271;51.910;5.840;2023-06-14T04:58:54;4.68;;;3.00;;
6475;SDS011;3271;51.910;5.840;2023-06-14T05:01:21;3.67;;;2.60;;
6475;SDS011;3271;51.910;5.840;2023-06-14T05:03:48;3.10;;;2.80;;
6475;SDS011;3271;51.910;5.840;2023-06-14T05:06:14;4.50;;;2.75;;
6475;SDS011;3271;51.910;5.840;2023-06-14T05:08:42;4.60;;;2.80;;
6475;SDS011;3271;51.910;5.840;2023-06-14T05:11:08;6.03;;;2.83;;
6475;SDS011;3271;51.910;5.840;2023-06-14T05:13:34;3.55;;;2.72;;
6475;SDS011;3271;51.910;5.840;2023-06-14T05:16:00;3.03;;;2.20;;
6475;SDS011;3271;51.910;5.840;2023-06-14T05:18:26;2.40;;;2.20;;
6475;SDS011;3271;51.910;5.840;2023-06-14T05:20:52;6.72;;;2.72;;
6475;SDS011;3271;51.910;5.840;2023-06-14T05:23:18;3.25;;;2.58;;
6475;SDS011;3271;51.910;5.840;2023-06-14T05:25:44;3.17;;;2.88;;
6475;SDS011;3271;51.910;5.840;2023-06-14T05:28:10;6.97;;;3.30;;
6475;SDS011;3271;51.910;5.840;2023-06-14T05:30:37;5.30;;;2.90;;
6475;SDS011;3271;51.910;5.840;2023-06-14T05:33:04;5.20;;;2.92;;
6475;SDS011;3271;51.910;5.840;2023-06-14T05:35:30;5.57;;;3.00;;
6475;SDS011;3271;51.910;5.840;2023-06-14T05:37:56;3.75;;;2.70;;
6475;SDS011;3271;51.910;5.840;2023-06-14T05:40:22;4.78;;;3.35;;
6475;SDS011;3271;51.910;5.840;2023-06-14T05:42:48;5.38;;;2.60;;
6475;SDS011;3271;51.910;5.840;2023-06-14T05:45:14;3.72;;;2.53;;
6475;SDS011;3271;51.910;5.840;2023-06-14T05:47:41;4.88;;;2.40;;
6475;SDS011;3271;51.910;5.840;2023-06-14T05:50:07;4.18;;;2.80;;
6475;SDS011;3271;51.910;5.840;2023-06-14T05:52:33;4.57;;;2.90;;
6475;SDS011;3271;51.910;5.840;2023-06-14T05:55:00;9.90;;;2.92;;
6475;SDS011;3271;51.910;5.840;2023-06-14T05:57:27;5.75;;;2.60;;
6475;SDS011;3271;51.910;5.840;2023-06-14T05:59:53;5.05;;;2.70;;
6475;SDS011;3271;51.910;5.840;2023-06-14T06:02:19;6.18;;;2.90;;
6475;SDS011;3271;51.910;5.840;2023-06-14T06:04:45;3.40;;;2.65;;
6475;SDS011;3271;51.910;5.840;2023-06-14T06:07:11;4.30;;;2.67;;
6475;SDS011;3271;51.910;5.840;2023-06-14T06:09:37;3.47;;;2.72;;
6475;SDS011;3271;51.910;5.840;2023-06-14T06:12:04;5.43;;;2.95;;
6475;SDS011;3271;51.910;5.840;2023-06-14T06:14:31;3.08;;;2.40;;
6475;SDS011;3271;51.910;5.840;2023-06-14T06:16:56;3.83;;;3.45;;
6475;SDS011;3271;51.910;5.840;2023-06-14T06:19:22;6.57;;;3.15;;
6475;SDS011;3271;51.910;5.840;2023-06-14T06:21:48;4.65;;;3.10;;
6475;SDS011;3271;51.910;5.840;2023-06-14T06:24:14;3.92;;;3.33;;
6475;SDS011;3271;51.910;5.840;2023-06-14T06:26:40;3.40;;;2.83;;
6475;SDS011;3271;51.910;5.840;2023-06-14T06:29:06;4.25;;;2.80;;
6475;SDS011;3271;51.910;5.840;2023-06-14T06:31:32;4.65;;;3.20;;
6475;SDS011;3271;51.910;5.840;2023-06-14T06:33:58;5.80;;;3.17;;
6475;SDS011;3271;51.910;5.840;2023-06-14T06:36:24;4.00;;;3.25;;
6475;SDS011;3271;51.910;5.840;2023-06-14T06:38:50;5.53;;;2.78;;
6475;SDS011;3271;51.910;5.840;2023-06-14T06:41:16;4.03;;;3.10;;
6475;SDS011;3271;51.910;5.840;2023-06-14T06:43:42;5.30;;;2.80;;
6475;SDS011;3271;51.910;5.840;2023-06-14T06:46:08;5.03;;;2.70;;
6475;SDS011;3271;51.910;5.840;2023-06-14T06:48:34;5.57;;;3.20;;
6475;SDS011;3271;51.910;5.840;2023-06-14T06:51:00;3.78;;;3.30;;
6475;SDS011;3271;51.910;5.840;2023-06-14T06:53:26;4.25;;;2.88;;
6475;SDS011;3271;51.910;5.840;2023-06-14T06:55:52;4.10;;;2.95;;
6475;SDS011;3271;51.910;5.840;2023-06-14T06:58:18;4.95;;;3.10;;
6475;SDS011;3271;51.910;5.840;2023-06-14T07:00:44;3.63;;;3.00;;
6475;SDS011;3271;51.910;5.840;2023-06-14T07:03:09;2.95;;;2.53;;
6475;SDS011;3271;51.910;5.840;2023-06-14T07:05:36;2.88;;;2.63;;
6475;SDS011;3271;51.910;5.840;2023-06-14T07:08:02;3.45;;;3.15;;
6475;SDS011;3271;51.910;5.840;2023-06-14T07:10:28;4.70;;;2.63;;
6475;SDS011;3271;51.910;5.840;2023-06-14T07:12:54;7.15;;;3.45;;
6475;SDS011;3271;51.910;5.840;2023-06-14T07:15:20;2.85;;;2.63;;
6475;SDS011;3271;51.910;5.840;2023-06-14T07:17:46;6.93;;;3.00;;
6475;SDS011;3271;51.910;5.840;2023-06-14T07:20:12;5.25;;;3.20;;
6475;SDS011;3271;51.910;5.840;2023-06-14T07:22:42;3.03;;;2.70;;
6475;SDS011;3271;51.910;5.840;2023-06-14T07:25:08;3.97;;;2.25;;
6475;SDS011;3271;51.910;5.840;2023-06-14T07:27:37;3.60;;;3.30;;
6475;SDS011;3271;51.910;5.840;2023-06-14T07:30:03;6.05;;;2.88;;
6475;SDS011;3271;51.910;5.840;2023-06-14T07:32:29;4.00;;;2.28;;
6475;SDS011;3271;51.910;5.840;2023-06-14T07:34:55;2.58;;;2.38;;
6475;SDS011;3271;51.910;5.840;2023-06-14T07:37:21;3.08;;;2.22;;
6475;SDS011;3271;51.910;5.840;2023-06-14T07:39:47;5.82;;;2.40;;
6475;SDS011;3271;51.910;5.840;2023-06-14T07:42:13;4.68;;;2.40;;
6475;SDS011;3271;51.910;5.840;2023-06-14T07:44:39;3.03;;;1.73;;
6475;SDS011;3271;51.910;5.840;2023-06-14T07:47:05;2.40;;;2.20;;
6475;SDS011;3271;51.910;5.840;2023-06-14T07:49:31;3.33;;;2.00;;
6475;SDS011;3271;51.910;5.840;2023-06-14T07:51:57;3.38;;;2.03;;
6475;SDS011;3271;51.910;5.840;2023-06-14T07:54:23;3.28;;;1.90;;
6475;SDS011;3271;51.910;5.840;2023-06-14T07:56:51;1.90;;;1.70;;
6475;SDS011;3271;51.910;5.840;2023-06-14T07:59:17;3.55;;;2.08;;
6475;SDS011;3271;51.910;5.840;2023-06-14T08:01:43;9.30;;;2.60;;
6475;SDS011;3271;51.910;5.840;2023-06-14T08:04:13;5.63;;;1.77;;
6475;SDS011;3271;51.910;5.840;2023-06-14T08:06:40;3.45;;;1.90;;
6475;SDS011;3271;51.910;5.840;2023-06-14T08:09:08;2.13;;;1.70;;
6475;SDS011;3271;51.910;5.840;2023-06-14T08:11:34;3.22;;;1.55;;
6475;SDS011;3271;51.910;5.840;2023-06-14T08:14:00;1.98;;;1.50;;
6475;SDS011;3271;51.910;5.840;2023-06-14T08:16:26;1.45;;;1.35;;
6475;SDS011;3271;51.910;5.840;2023-06-14T08:18:52;2.38;;;1.60;;
6475;SDS011;3271;51.910;5.840;2023-06-14T08:21:18;2.05;;;1.70;;
6475;SDS011;3271;51.910;5.840;2023-06-14T08:23:44;2.58;;;1.70;;
6475;SDS011;3271;51.910;5.840;2023-06-14T08:26:10;2.33;;;1.55;;
6475;SDS011;3271;51.910;5.840;2023-06-14T08:28:36;4.22;;;1.70;;
6475;SDS011;3271;51.910;5.840;2023-06-14T08:31:02;2.30;;;1.58;;
6475;SDS011;3271;51.910;5.840;2023-06-14T08:33:28;4.53;;;1.60;;
6475;SDS011;3271;51.910;5.840;2023-06-14T08:35:54;1.90;;;1.40;;
6475;SDS011;3271;51.910;5.840;2023-06-14T08:38:20;3.88;;;1.63;;
6475;SDS011;3271;51.910;5.840;2023-06-14T08:40:48;2.30;;;1.88;;
6475;SDS011;3271;51.910;5.840;2023-06-14T08:43:16;2.03;;;1.58;;
6475;SDS011;3271;51.910;5.840;2023-06-14T08:45:42;2.60;;;1.88;;
6475;SDS011;3271;51.910;5.840;2023-06-14T08:48:08;3.90;;;1.80;;
6475;SDS011;3271;51.910;5.840;2023-06-14T08:50:34;3.85;;;1.67;;
6475;SDS011;3271;51.910;5.840;2023-06-14T08:53:02;1.88;;;1.67;;
6475;SDS011;3271;51.910;5.840;2023-06-14T08:55:28;1.70;;;1.60;;
6475;SDS011;3271;51.910;5.840;2023-06-14T08:57:55;2.50;;;2.30;;
6475;SDS011;3271;51.910;5.840;2023-06-14T09:00:27;2.05;;;1.50;;
6475;SDS011;3271;51.910;5.840;2023-06-14T09:02:53;3.38;;;1.77;;
6475;SDS011;3271;51.910;5.840;2023-06-14T09:05:26;2.75;;;1.90;;
6475;SDS011;3271;51.910;5.840;2023-06-14T09:07:52;1.80;;;1.70;;
6475;SDS011;3271;51.910;5.840;2023-06-14T09:10:20;3.38;;;1.67;;
6475;SDS011;3271;51.910;5.840;2023-06-14T09:12:46;3.88;;;1.60;;
6475;SDS011;3271;51.910;5.840;2023-06-14T09:15:12;1.90;;;1.80;;
6475;SDS011;3271;51.910;5.840;2023-06-14T09:17:39;2.03;;;1.80;;
6475;SDS011;3271;51.910;5.840;2023-06-14T09:20:05;1.85;;;1.40;;
6475;SDS011;3271;51.910;5.840;2023-06-14T09:22:32;3.97;;;1.70;;
6475;SDS011;3271;51.910;5.840;2023-06-14T09:24:58;3.88;;;1.80;;
6475;SDS011;3271;51.910;5.840;2023-06-14T09:27:30;2.45;;;1.85;;
6475;SDS011;3271;51.910;5.840;2023-06-14T09:29:56;2.28;;;1.77;;
6475;SDS011;3271;51.910;5.840;2023-06-14T09:32:22;3.42;;;1.70;;
6475;SDS011;3271;51.910;5.840;2023-06-14T09:34:49;2.47;;;1.60;;
6475;SDS011;3271;51.910;5.840;2023-06-14T09:37:27;4.60;;;1.80;;
6475;SDS011;3271;51.910;5.840;2023-06-14T09:39:54;2.92;;;1.50;;
6475;SDS011;3271;51.910;5.840;2023-06-14T09:42:20;3.60;;;1.60;;
6475;SDS011;3271;51.910;5.840;2023-06-14T09:44:47;3.00;;;1.70;;
6475;SDS011;3271;51.910;5.840;2023-06-14T09:47:14;3.05;;;1.60;;
6475;SDS011;3271;51.910;5.840;2023-06-14T09:49:40;2.95;;;1.75;;
6475;SDS011;3271;51.910;5.840;2023-06-14T09:52:06;2.78;;;1.50;;
6475;SDS011;3271;51.910;5.840;2023-06-14T09:54:33;2.78;;;1.50;;
6475;SDS011;3271;51.910;5.840;2023-06-14T09:57:00;1.73;;;1.60;;
6475;SDS011;3271;51.910;5.840;2023-06-14T09:59:27;2.13;;;1.75;;
6475;SDS011;3271;51.910;5.840;2023-06-14T10:01:57;1.45;;;1.30;;
6475;SDS011;3271;51.910;5.840;2023-06-14T10:04:29;1.67;;;1.50;;
6475;SDS011;3271;51.910;5.840;2023-06-14T10:06:55;2.85;;;1.55;;
6475;SDS011;3271;51.910;5.840;2023-06-14T10:09:22;3.25;;;1.60;;
6475;SDS011;3271;51.910;5.840;2023-06-14T10:11:47;1.92;;;1.77;;
6475;SDS011;3271;51.910;5.840;2023-06-14T10:14:14;1.70;;;1.60;;
6475;SDS011;3271;51.910;5.840;2023-06-14T10:21:57;4.10;;;1.30;;
6475;SDS011;3271;51.910;5.840;2023-06-14T10:24:27;9.45;;;7.90;;
6475;SDS011;3271;51.910;5.840;2023-06-14T10:26:57;15.43;;;13.32;;
6475;SDS011;3271;51.910;5.840;2023-06-14T10:29:23;9.13;;;8.23;;
6475;SDS011;3271;51.910;5.840;2023-06-14T10:31:50;4.68;;;2.25;;
6475;SDS011;3271;51.910;5.840;2023-06-14T10:34:26;5.63;;;1.90;;
6475;SDS011;3271;51.910;5.840;2023-06-14T10:37:00;1.60;;;1.50;;
6475;SDS011;3271;51.910;5.840;2023-06-14T10:39:27;2.15;;;1.52;;
6475;SDS011;3271;51.910;5.840;2023-06-14T10:41:54;3.00;;;1.55;;
6475;SDS011;3271;51.910;5.840;2023-06-14T10:46:46;3.47;;;1.50;;
6475;SDS011;3271;51.910;5.840;2023-06-14T10:49:12;3.05;;;1.55;;
6475;SDS011;3271;51.910;5.840;2023-06-14T10:51:45;5.90;;;2.10;;
6475;SDS011;3271;51.910;5.840;2023-06-14T10:54:17;2.03;;;1.70;;
6475;SDS011;3271;51.910;5.840;2023-06-14T10:56:46;1.60;;;1.50;;
6475;SDS011;3271;51.910;5.840;2023-06-14T10:59:13;2.03;;;1.23;;
6475;SDS011;3271;51.910;5.840;2023-06-14T11:04:27;2.38;;;1.42;;
6475;SDS011;3271;51.910;5.840;2023-06-14T11:07:04;2.28;;;1.92;;
6475;SDS011;3271;51.910;5.840;2023-06-14T11:12:04;2.65;;;1.60;;
6475;SDS011;3271;51.910;5.840;2023-06-14T11:14:31;1.40;;;1.30;;
6475;SDS011;3271;51.910;5.840;2023-06-14T11:16:57;4.18;;;1.50;;
6475;SDS011;3271;51.910;5.840;2023-06-14T11:19:23;2.28;;;1.30;;
6475;SDS011;3271;51.910;5.840;2023-06-14T11:21:50;3.05;;;1.52;;
6475;SDS011;3271;51.910;5.840;2023-06-14T11:24:16;1.52;;;1.42;;
6475;SDS011;3271;51.910;5.840;2023-06-14T11:26:42;2.67;;;1.77;;
6475;SDS011;3271;51.910;5.840;2023-06-14T11:29:08;1.98;;;1.77;;
6475;SDS011;3271;51.910;5.840;2023-06-14T11:31:34;2.38;;;1.80;;
6475;SDS011;3271;51.910;5.840;2023-06-14T11:34:00;4.07;;;1.77;;
6475;SDS011;3271;51.910;5.840;2023-06-14T11:36:26;3.13;;;1.52;;
6475;SDS011;3271;51.910;5.840;2023-06-14T11:38:58;1.63;;;1.52;;
6475;SDS011;3271;51.910;5.840;2023-06-14T11:41:24;3.70;;;1.75;;
6475;SDS011;3271;51.910;5.840;2023-06-14T11:43:53;2.83;;;1.80;;
6475;SDS011;3271;51.910;5.840;2023-06-14T11:46:19;2.35;;;2.13;;
6475;SDS011;3271;51.910;5.840;2023-06-14T11:48:49;3.78;;;1.70;;
6475;SDS011;3271;51.910;5.840;2023-06-14T11:51:15;2.40;;;1.80;;
6475;SDS011;3271;51.910;5.840;2023-06-14T11:53:42;7.40;;;2.10;;
6475;SDS011;3271;51.910;5.840;2023-06-14T11:56:08;3.10;;;1.70;;
6475;SDS011;3271;51.910;5.840;2023-06-14T11:58:34;2.58;;;1.63;;
6475;SDS011;3271;51.910;5.840;2023-06-14T12:01:00;2.20;;;1.50;;
6475;SDS011;3271;51.910;5.840;2023-06-14T12:03:28;3.25;;;1.70;;
6475;SDS011;3271;51.910;5.840;2023-06-14T12:06:04;2.63;;;1.42;;
6475;SDS011;3271;51.910;5.840;2023-06-14T12:08:34;2.95;;;1.70;;
6475;SDS011;3271;51.910;5.840;2023-06-14T12:11:03;1.77;;;1.50;;
6475;SDS011;3271;51.910;5.840;2023-06-14T12:13:30;1.52;;;1.42;;
6475;SDS011;3271;51.910;5.840;2023-06-14T12:15:56;3.00;;;1.52;;
6475;SDS011;3271;51.910;5.840;2023-06-14T12:18:31;1.70;;;1.60;;
6475;SDS011;3271;51.910;5.840;2023-06-14T12:20:58;3.50;;;1.70;;
6475;SDS011;3271;51.910;5.840;2023-06-14T12:23:38;1.92;;;1.73;;
6475;SDS011;3271;51.910;5.840;2023-06-14T12:26:04;2.75;;;1.70;;
6475;SDS011;3271;51.910;5.840;2023-06-14T12:28:31;1.65;;;1.55;;
6475;SDS011;3271;51.910;5.840;2023-06-14T12:30:57;2.78;;;1.60;;
6475;SDS011;3271;51.910;5.840;2023-06-14T12:33:23;3.72;;;1.50;;
6475;SDS011;3271;51.910;5.840;2023-06-14T12:35:50;2.03;;;1.50;;
6475;SDS011;3271;51.910;5.840;2023-06-14T12:38:16;2.35;;;1.40;;
6475;SDS011;3271;51.910;5.840;2023-06-14T12:40:42;2.85;;;2.00;;
6475;SDS011;3271;51.910;5.840;2023-06-14T12:43:08;3.92;;;1.60;;
6475;SDS011;3271;51.910;5.840;2023-06-14T12:45:34;2.97;;;1.58;;
6475;SDS011;3271;51.910;5.840;2023-06-14T12:48:00;3.28;;;1.40;;
6475;SDS011;3271;51.910;5.840;2023-06-14T12:50:26;1.65;;;1.55;;
6475;SDS011;3271;51.910;5.840;2023-06-14T12:52:52;3.10;;;1.50;;
6475;SDS011;3271;51.910;5.840;2023-06-14T12:55:18;1.83;;;1.60;;
6475;SDS011;3271;51.910;5.840;2023-06-14T12:57:44;2.25;;;1.75;;
6475;SDS011;3271;51.910;5.840;2023-06-14T13:00:10;1.45;;;1.17;;
6475;SDS011;3271;51.910;5.840;2023-06-14T13:02:37;4.03;;;1.45;;
6475;SDS011;3271;51.910;5.840;2023-06-14T13:05:03;1.55;;;1.45;;
6475;SDS011;3271;51.910;5.840;2023-06-14T13:07:30;1.25;;;1.15;;
6475;SDS011;3271;51.910;5.840;2023-06-14T13:09:56;8.50;;;1.63;;
6475;SDS011;3271;51.910;5.840;2023-06-14T13:12:22;4.93;;;1.45;;
6475;SDS011;3271;51.910;5.840;2023-06-14T13:14:48;1.50;;;1.30;;
6475;SDS011;3271;51.910;5.840;2023-06-14T13:17:14;1.60;;;1.00;;
6475;SDS011;3271;51.910;5.840;2023-06-14T13:19:40;3.50;;;1.38;;
6475;SDS011;3271;51.910;5.840;2023-06-14T13:22:07;1.77;;;1.40;;
6475;SDS011;3271;51.910;5.840;2023-06-14T13:24:33;1.40;;;1.30;;
6475;SDS011;3271;51.910;5.840;2023-06-14T13:26:59;3.33;;;1.38;;
6475;SDS011;3271;51.910;5.840;2023-06-14T13:29:25;1.60;;;1.20;;
6475;SDS011;3271;51.910;5.840;2023-06-14T13:31:52;1.58;;;1.48;;
6475;SDS011;3271;51.910;5.840;2023-06-14T13:34:18;4.75;;;1.50;;
6475;SDS011;3271;51.910;5.840;2023-06-14T13:36:44;5.05;;;1.30;;
6475;SDS011;3271;51.910;5.840;2023-06-14T13:39:11;1.48;;;1.38;;
6475;SDS011;3271;51.910;5.840;2023-06-14T13:41:37;1.38;;;1.27;;
6475;SDS011;3271;51.910;5.840;2023-06-14T13:44:02;6.05;;;1.30;;
6475;SDS011;3271;51.910;5.840;2023-06-14T13:46:29;3.13;;;1.30;;
6475;SDS011;3271;51.910;5.840;2023-06-14T13:48:55;2.05;;;1.20;;
6475;SDS011;3271;51.910;5.840;2023-06-14T13:51:21;1.40;;;1.30;;
6475;SDS011;3271;51.910;5.840;2023-06-14T13:53:50;2.50;;;1.20;;
6475;SDS011;3271;51.910;5.840;2023-06-14T13:56:16;1.33;;;1.20;;
6475;SDS011;3271;51.910;5.840;2023-06-14T13:58:42;1.30;;;1.20;;
6475;SDS011;3271;51.910;5.840;2023-06-14T14:01:08;3.40;;;1.08;;
6475;SDS011;3271;51.910;5.840;2023-06-14T14:03:35;3.50;;;1.15;;
6475;SDS011;3271;51.910;5.840;2023-06-14T14:06:01;1.63;;;1.10;;
6475;SDS011;3271;51.910;5.840;2023-06-14T14:08:27;2.15;;;1.20;;
6475;SDS011;3271;51.910;5.840;2023-06-14T14:10:53;4.05;;;1.15;;
6475;SDS011;3271;51.910;5.840;2023-06-14T14:13:20;1.92;;;1.10;;
6475;SDS011;3271;51.910;5.840;2023-06-14T14:15:46;1.60;;;1.10;;
6475;SDS011;3271;51.910;5.840;2023-06-14T14:18:14;5.28;;;1.20;;
6475;SDS011;3271;51.910;5.840;2023-06-14T14:20:40;3.35;;;1.40;;
6475;SDS011;3271;51.910;5.840;2023-06-14T14:23:06;3.85;;;1.55;;
6475;SDS011;3271;51.910;5.840;2023-06-14T14:25:32;6.47;;;4.18;;
6475;SDS011;3271;51.910;5.840;2023-06-14T14:27:58;9.07;;;7.45;;
6475;SDS011;3271;51.910;5.840;2023-06-14T14:30:24;2.03;;;1.50;;
6475;SDS011;3271;51.910;5.840;2023-06-14T14:32:50;2.80;;;1.70;;
6475;SDS011;3271;51.910;5.840;2023-06-14T14:35:17;3.05;;;1.25;;
6475;SDS011;3271;51.910;5.840;2023-06-14T14:37:43;6.10;;;1.20;;
6475;SDS011;3271;51.910;5.840;2023-06-14T14:40:09;4.25;;;1.20;;
6475;SDS011;3271;51.910;5.840;2023-06-14T14:42:36;1.75;;;1.15;;
6475;SDS011;3271;51.910;5.840;2023-06-14T14:45:02;1.20;;;1.10;;
6475;SDS011;3271;51.910;5.840;2023-06-14T14:47:28;2.17;;;1.30;;
6475;SDS011;3271;51.910;5.840;2023-06-14T14:49:54;2.47;;;1.10;;
6475;SDS011;3271;51.910;5.840;2023-06-14T14:52:20;1.30;;;1.20;;
6475;SDS011;3271;51.910;5.840;2023-06-14T14:54:46;3.30;;;1.60;;
6475;SDS011;3271;51.910;5.840;2023-06-14T14:57:11;3.00;;;1.20;;
6475;SDS011;3271;51.910;5.840;2023-06-14T14:59:39;4.63;;;1.38;;
6475;SDS011;3271;51.910;5.840;2023-06-14T15:02:07;2.35;;;1.20;;
6475;SDS011;3271;51.910;5.840;2023-06-14T15:04:33;1.30;;;1.17;;
6475;SDS011;3271;51.910;5.840;2023-06-14T15:06:59;2.55;;;1.40;;
6475;SDS011;3271;51.910;5.840;2023-06-14T15:09:26;4.32;;;1.45;;
6475;SDS011;3271;51.910;5.840;2023-06-14T15:11:52;2.47;;;1.27;;
6475;SDS011;3271;51.910;5.840;2023-06-14T15:14:18;2.55;;;1.40;;
6475;SDS011;3271;51.910;5.840;2023-06-14T15:16:44;1.60;;;1.20;;
6475;SDS011;3271;51.910;5.840;2023-06-14T15:19:10;1.58;;;1.30;;
6475;SDS011;3271;51.910;5.840;2023-06-14T15:21:36;1.67;;;1.20;;
6475;SDS011;3271;51.910;5.840;2023-06-14T15:24:01;2.38;;;1.50;;
6475;SDS011;3271;51.910;5.840;2023-06-14T15:26:27;1.48;;;1.30;;
6475;SDS011;3271;51.910;5.840;2023-06-14T15:28:54;2.50;;;1.30;;